sensor_id;sensor_type;location;lat;lon;timestamp;P1;durP1;ratioP1;P2;durP2;ratioP2
79017;SDS011;68421;44.714;37.756;2023-03-29T00:00:03;3.03;;;1.40;;
79017;SDS011;68421;44.714;37.756;2023-03-29T00:01:12;2.88;;;1.20;;
79017;SDS011;68421;44.714;37.756;2023-03-29T00:02:13;3.63;;;1.23;;
79017;SDS011;68421;44.714;37.756;2023-03-29T00:03:16;4.40;;;1.45;;
79017;SDS011;68421;44.714;37.756;2023-03-29T00:04:17;4.68;;;1.42;;
79017;SDS011;68421;44.714;37.756;2023-03-29T00:05:22;2.88;;;1.10;;
79017;SDS011;68421;44.714;37.756;2023-03-29T00:07:32;4.10;;;1.23;;
79017;SDS011;68421;44.714;37.756;2023-03-29T00:08:34;2.33;;;1.10;;
79017;SDS011;68421;44.714;37.756;2023-03-29T00:09:37;3.75;;;1.25;;
79017;SDS011;68421;44.714;37.756;2023-03-29T00:10:39;3.33;;;1.30;;
79017;SDS011;68421;44.714;37.756;2023-03-29T00:11:40;3.63;;;1.40;;
79017;SDS011;68421;44.714;37.756;2023-03-29T00:12:42;3.40;;;1.23;;
79017;SDS011;68421;44.714;37.756;2023-03-29T00:13:43;3.08;;;1.33;;
79017;SDS011;68421;44.714;37.756;2023-03-29T00:14:45;3.63;;;1.30;;
79017;SDS011;68421;44.714;37.756;2023-03-29T00:15:47;3.30;;;1.38;;
79017;SDS011;68421;44.714;37.756;2023-03-29T00:16:48;4.32;;;1.50;;
79017;SDS011;68421;44.714;37.756;2023-03-29T00:17:49;2.92;;;1.10;;
79017;SDS011;68421;44.714;37.756;2023-03-29T00:18:51;3.95;;;1.38;;
79017;SDS011;68421;44.714;37.756;2023-03-29T00:19:53;2.92;;;1.17;;
79017;SDS011;68421;44.714;37.756;2023-03-29T00:20:55;3.75;;;1.20;;
79017;SDS011;68421;44.714;37.756;2023-03-29T00:21:57;2.85;;;1.20;;
79017;SDS011;68421;44.714;37.756;2023-03-29T00:22:58;4.03;;;1.52;;
79017;SDS011;68421;44.714;37.756;2023-03-29T00:23:59;3.30;;;1.38;;
79017;SDS011;68421;44.714;37.756;2023-03-29T00:25:01;3.28;;;1.20;;
79017;SDS011;68421;44.714;37.756;2023-03-29T00:26:03;3.78;;;1.40;;
79017;SDS011;68421;44.714;37.756;2023-03-29T00:27:05;4.00;;;1.23;;
79017;SDS011;68421;44.714;37.756;2023-03-29T00:28:06;4.20;;;1.30;;
79017;SDS011;68421;44.714;37.756;2023-03-29T00:29:08;3.97;;;1.40;;
79017;SDS011;68421;44.714;37.756;2023-03-29T00:30:11;3.50;;;1.20;;
79017;SDS011;68421;44.714;37.756;2023-03-29T00:31:13;3.10;;;1.20;;
79017;SDS011;68421;44.714;37.756;2023-03-29T00:32:16;2.88;;;1.10;;
79017;SDS011;68421;44.714;37.756;2023-03-29T00:33:18;2.88;;;1.33;;
79017;SDS011;68421;44.714;37.756;2023-03-29T00:34:25;4.13;;;1.30;;
79017;SDS011;68421;44.714;37.756;2023-03-29T00:35:30;3.97;;;1.20;;
79017;SDS011;68421;44.714;37.756;2023-03-29T00:36:32;2.97;;;1.30;;
79017;SDS011;68421;44.714;37.756;2023-03-29T00:37:33;3.13;;;1.20;;
79017;SDS011;68421;44.714;37.756;2023-03-29T00:38:35;3.10;;;1.20;;
79017;SDS011;68421;44.714;37.756;2023-03-29T00:39:36;2.88;;;1.13;;
79017;SDS011;68421;44.714;37.756;2023-03-29T00:40:43;3.25;;;1.20;;
79017;SDS011;68421;44.714;37.756;2023-03-29T00:41:47;2.92;;;1.20;;
79017;SDS011;68421;44.714;37.756;2023-03-29T00:42:49;3.45;;;1.10;;
79017;SDS011;68421;44.714;37.756;2023-03-29T00:43:58;2.92;;;1.13;;
79017;SDS011;68421;44.714;37.756;2023-03-29T00:45:02;2.58;;;1.10;;
79017;SDS011;68421;44.714;37.756;2023-03-29T00:46:17;3.50;;;1.30;;
79017;SDS011;68421;44.714;37.756;2023-03-29T00:47:20;3.53;;;1.30;;
79017;SDS011;68421;44.714;37.756;2023-03-29T00:48:30;2.67;;;1.13;;
79017;SDS011;68421;44.714;37.756;2023-03-29T00:49:32;3.03;;;1.13;;
79017;SDS011;68421;44.714;37.756;2023-03-29T00:50:37;3.95;;;1.42;;
79017;SDS011;68421;44.714;37.756;2023-03-29T00:52:06;3.75;;;1.23;;
79017;SDS011;68421;44.714;37.756;2023-03-29T00:53:51;2.80;;;1.13;;
79017;SDS011;68421;44.714;37.756;2023-03-29T00:54:35;3.45;;;1.25;;
79017;SDS011;68421;44.714;37.756;2023-03-29T00:55:39;4.38;;;1.30;;
79017;SDS011;68421;44.714;37.756;2023-03-29T00:56:55;2.85;;;1.10;;
79017;SDS011;68421;44.714;37.756;2023-03-29T00:57:57;2.40;;;1.20;;
79017;SDS011;68421;44.714;37.756;2023-03-29T00:59:04;3.33;;;1.10;;
79017;SDS011;68421;44.714;37.756;2023-03-29T01:00:10;2.85;;;1.10;;
79017;SDS011;68421;44.714;37.756;2023-03-29T01:01:23;2.80;;;1.15;;
79017;SDS011;68421;44.714;37.756;2023-03-29T01:02:33;2.70;;;1.10;;
79017;SDS011;68421;44.714;37.756;2023-03-29T01:03:41;2.75;;;1.05;;
79017;SDS011;68421;44.714;37.756;2023-03-29T01:04:48;2.45;;;1.00;;
79017;SDS011;68421;44.714;37.756;2023-03-29T01:05:59;3.70;;;1.10;;
79017;SDS011;68421;44.714;37.756;2023-03-29T01:07:15;3.97;;;1.30;;
79017;SDS011;68421;44.714;37.756;2023-03-29T01:08:23;2.85;;;1.10;;
79017;SDS011;68421;44.714;37.756;2023-03-29T01:09:30;2.92;;;1.08;;
79017;SDS011;68421;44.714;37.756;2023-03-29T01:11:40;2.42;;;1.08;;
79017;SDS011;68421;44.714;37.756;2023-03-29T01:12:52;3.10;;;1.20;;
79017;SDS011;68421;44.714;37.756;2023-03-29T01:14:05;2.50;;;1.02;;
79017;SDS011;68421;44.714;37.756;2023-03-29T01:15:13;3.00;;;1.20;;
79017;SDS011;68421;44.714;37.756;2023-03-29T01:16:22;2.65;;;1.10;;
79017;SDS011;68421;44.714;37.756;2023-03-29T01:17:26;3.10;;;1.20;;
79017;SDS011;68421;44.714;37.756;2023-03-29T01:18:31;2.47;;;1.10;;
79017;SDS011;68421;44.714;37.756;2023-03-29T01:19:35;2.92;;;1.20;;
79017;SDS011;68421;44.714;37.756;2023-03-29T01:21:55;2.00;;;1.05;;
79017;SDS011;68421;44.714;37.756;2023-03-29T01:26:04;3.42;;;1.10;;
79017;SDS011;68421;44.714;37.756;2023-03-29T01:29:06;2.88;;;1.17;;
79017;SDS011;68421;44.714;37.756;2023-03-29T01:30:28;2.92;;;1.15;;
79017;SDS011;68421;44.714;37.756;2023-03-29T01:31:37;2.17;;;1.00;;
79017;SDS011;68421;44.714;37.756;2023-03-29T01:32:50;2.67;;;1.10;;
79017;SDS011;68421;44.714;37.756;2023-03-29T01:34:00;3.03;;;1.15;;
79017;SDS011;68421;44.714;37.756;2023-03-29T01:35:59;2.78;;;1.02;;
79017;SDS011;68421;44.714;37.756;2023-03-29T01:36:43;2.25;;;1.10;;
79017;SDS011;68421;44.714;37.756;2023-03-29T01:38:06;2.78;;;1.30;;
79017;SDS011;68421;44.714;37.756;2023-03-29T01:39:15;2.13;;;0.90;;
79017;SDS011;68421;44.714;37.756;2023-03-29T01:40:18;3.08;;;1.13;;
79017;SDS011;68421;44.714;37.756;2023-03-29T01:41:20;2.85;;;1.00;;
79017;SDS011;68421;44.714;37.756;2023-03-29T01:44:11;2.58;;;1.00;;
79017;SDS011;68421;44.714;37.756;2023-03-29T01:46:43;2.33;;;0.90;;
79017;SDS011;68421;44.714;37.756;2023-03-29T01:47:53;3.20;;;0.90;;
79017;SDS011;68421;44.714;37.756;2023-03-29T01:49:07;3.10;;;1.20;;
79017;SDS011;68421;44.714;37.756;2023-03-29T01:51:38;2.95;;;1.10;;
79017;SDS011;68421;44.714;37.756;2023-03-29T01:54:04;3.28;;;1.00;;
79017;SDS011;68421;44.714;37.756;2023-03-29T01:55:13;2.75;;;1.00;;
79017;SDS011;68421;44.714;37.756;2023-03-29T01:56:21;1.95;;;1.00;;
79017;SDS011;68421;44.714;37.756;2023-03-29T01:57:26;1.67;;;0.90;;
79017;SDS011;68421;44.714;37.756;2023-03-29T01:58:30;1.35;;;0.82;;
79017;SDS011;68421;44.714;37.756;2023-03-29T01:59:33;2.67;;;0.93;;
79017;SDS011;68421;44.714;37.756;2023-03-29T02:00:38;2.15;;;0.90;;
79017;SDS011;68421;44.714;37.756;2023-03-29T02:01:46;3.72;;;1.20;;
79017;SDS011;68421;44.714;37.756;2023-03-29T02:02:50;2.78;;;1.00;;
79017;SDS011;68421;44.714;37.756;2023-03-29T02:03:56;1.52;;;0.95;;
79017;SDS011;68421;44.714;37.756;2023-03-29T02:05:02;2.80;;;1.10;;
79017;SDS011;68421;44.714;37.756;2023-03-29T02:06:05;2.33;;;1.00;;
79017;SDS011;68421;44.714;37.756;2023-03-29T02:07:06;2.47;;;1.02;;
79017;SDS011;68421;44.714;37.756;2023-03-29T02:08:11;2.85;;;1.00;;
79017;SDS011;68421;44.714;37.756;2023-03-29T02:09:14;2.17;;;1.00;;
79017;SDS011;68421;44.714;37.756;2023-03-29T02:10:17;2.90;;;1.10;;
79017;SDS011;68421;44.714;37.756;2023-03-29T02:11:20;2.47;;;0.95;;
79017;SDS011;68421;44.714;37.756;2023-03-29T02:12:24;2.25;;;1.00;;
79017;SDS011;68421;44.714;37.756;2023-03-29T02:13:25;2.60;;;1.00;;
79017;SDS011;68421;44.714;37.756;2023-03-29T02:14:27;2.92;;;1.10;;
79017;SDS011;68421;44.714;37.756;2023-03-29T02:15:30;2.53;;;0.93;;
79017;SDS011;68421;44.714;37.756;2023-03-29T02:16:36;2.20;;;1.00;;
79017;SDS011;68421;44.714;37.756;2023-03-29T02:17:39;2.13;;;0.90;;
79017;SDS011;68421;44.714;37.756;2023-03-29T02:18:41;1.77;;;0.90;;
79017;SDS011;68421;44.714;37.756;2023-03-29T02:19:45;2.90;;;1.08;;
79017;SDS011;68421;44.714;37.756;2023-03-29T02:20:49;2.72;;;0.90;;
79017;SDS011;68421;44.714;37.756;2023-03-29T02:23:06;1.83;;;0.73;;
79017;SDS011;68421;44.714;37.756;2023-03-29T02:24:21;2.60;;;1.00;;
79017;SDS011;68421;44.714;37.756;2023-03-29T02:25:25;2.20;;;0.90;;
79017;SDS011;68421;44.714;37.756;2023-03-29T02:26:26;2.00;;;0.80;;
79017;SDS011;68421;44.714;37.756;2023-03-29T02:27:29;3.00;;;1.00;;
79017;SDS011;68421;44.714;37.756;2023-03-29T02:28:31;1.98;;;0.90;;
79017;SDS011;68421;44.714;37.756;2023-03-29T02:29:33;2.10;;;0.90;;
79017;SDS011;68421;44.714;37.756;2023-03-29T02:32:14;2.22;;;0.90;;
79017;SDS011;68421;44.714;37.756;2023-03-29T02:33:32;2.25;;;0.90;;
79017;SDS011;68421;44.714;37.756;2023-03-29T02:34:45;3.05;;;1.00;;
79017;SDS011;68421;44.714;37.756;2023-03-29T02:35:59;2.95;;;1.00;;
79017;SDS011;68421;44.714;37.756;2023-03-29T02:37:08;2.65;;;0.90;;
79017;SDS011;68421;44.714;37.756;2023-03-29T02:38:15;1.75;;;0.80;;
79017;SDS011;68421;44.714;37.756;2023-03-29T02:39:17;1.33;;;0.77;;
79017;SDS011;68421;44.714;37.756;2023-03-29T02:40:20;2.83;;;1.08;;
79017;SDS011;68421;44.714;37.756;2023-03-29T02:42:25;2.78;;;0.90;;
79017;SDS011;68421;44.714;37.756;2023-03-29T02:43:28;1.92;;;0.90;;
79017;SDS011;68421;44.714;37.756;2023-03-29T02:44:32;1.60;;;0.90;;
79017;SDS011;68421;44.714;37.756;2023-03-29T02:45:38;1.00;;;0.75;;
79017;SDS011;68421;44.714;37.756;2023-03-29T02:46:41;3.28;;;1.10;;
79017;SDS011;68421;44.714;37.756;2023-03-29T02:47:44;1.40;;;0.80;;
79017;SDS011;68421;44.714;37.756;2023-03-29T02:48:51;1.63;;;0.93;;
79017;SDS011;68421;44.714;37.756;2023-03-29T02:49:54;1.85;;;0.80;;
79017;SDS011;68421;44.714;37.756;2023-03-29T02:50:57;2.65;;;0.90;;
79017;SDS011;68421;44.714;37.756;2023-03-29T02:52:05;2.08;;;0.90;;
79017;SDS011;68421;44.714;37.756;2023-03-29T02:53:19;2.67;;;0.98;;
79017;SDS011;68421;44.714;37.756;2023-03-29T02:54:26;1.83;;;0.90;;
79017;SDS011;68421;44.714;37.756;2023-03-29T02:55:31;2.13;;;0.80;;
79017;SDS011;68421;44.714;37.756;2023-03-29T02:56:44;1.75;;;0.85;;
79017;SDS011;68421;44.714;37.756;2023-03-29T02:58:51;1.55;;;0.80;;
79017;SDS011;68421;44.714;37.756;2023-03-29T02:59:53;2.38;;;0.90;;
79017;SDS011;68421;44.714;37.756;2023-03-29T03:00:57;1.35;;;0.73;;
79017;SDS011;68421;44.714;37.756;2023-03-29T03:02:01;1.52;;;0.80;;
79017;SDS011;68421;44.714;37.756;2023-03-29T03:03:04;2.15;;;0.80;;
79017;SDS011;68421;44.714;37.756;2023-03-29T03:04:07;2.80;;;0.90;;
79017;SDS011;68421;44.714;37.756;2023-03-29T03:05:10;2.25;;;0.90;;
79017;SDS011;68421;44.714;37.756;2023-03-29T03:06:11;1.80;;;0.88;;
79017;SDS011;68421;44.714;37.756;2023-03-29T03:07:13;1.70;;;0.77;;
79017;SDS011;68421;44.714;37.756;2023-03-29T03:08:14;1.52;;;0.80;;
79017;SDS011;68421;44.714;37.756;2023-03-29T03:09:16;2.67;;;1.00;;
79017;SDS011;68421;44.714;37.756;2023-03-29T03:10:20;1.42;;;0.80;;
79017;SDS011;68421;44.714;37.756;2023-03-29T03:11:22;1.95;;;0.90;;
79017;SDS011;68421;44.714;37.756;2023-03-29T03:12:23;2.67;;;0.82;;
79017;SDS011;68421;44.714;37.756;2023-03-29T03:13:25;2.50;;;1.00;;
79017;SDS011;68421;44.714;37.756;2023-03-29T03:14:26;1.75;;;0.80;;
79017;SDS011;68421;44.714;37.756;2023-03-29T03:15:31;1.90;;;0.80;;
79017;SDS011;68421;44.714;37.756;2023-03-29T03:16:35;1.83;;;0.80;;
79017;SDS011;68421;44.714;37.756;2023-03-29T03:17:36;2.25;;;0.95;;
79017;SDS011;68421;44.714;37.756;2023-03-29T03:20:53;0.82;;;0.70;;
79017;SDS011;68421;44.714;37.756;2023-03-29T03:22:04;1.90;;;0.80;;
79017;SDS011;68421;44.714;37.756;2023-03-29T03:23:05;1.45;;;0.80;;
79017;SDS011;68421;44.714;37.756;2023-03-29T03:24:08;1.60;;;0.80;;
79017;SDS011;68421;44.714;37.756;2023-03-29T03:25:11;1.48;;;0.80;;
79017;SDS011;68421;44.714;37.756;2023-03-29T03:26:13;1.75;;;0.80;;
79017;SDS011;68421;44.714;37.756;2023-03-29T03:27:16;2.15;;;0.80;;
79017;SDS011;68421;44.714;37.756;2023-03-29T03:28:18;2.10;;;0.90;;
79017;SDS011;68421;44.714;37.756;2023-03-29T03:29:20;1.48;;;0.77;;
79017;SDS011;68421;44.714;37.756;2023-03-29T03:30:40;2.38;;;0.80;;
79017;SDS011;68421;44.714;37.756;2023-03-29T03:32:14;1.75;;;0.82;;
79017;SDS011;68421;44.714;37.756;2023-03-29T03:33:34;2.30;;;0.90;;
79017;SDS011;68421;44.714;37.756;2023-03-29T03:34:36;1.88;;;0.80;;
79017;SDS011;68421;44.714;37.756;2023-03-29T03:35:38;1.20;;;0.77;;
79017;SDS011;68421;44.714;37.756;2023-03-29T03:36:41;2.47;;;0.75;;
